sensor_id;sensor_type;location;lat;lon;timestamp;P1;durP1;ratioP1;P2;durP2;ratioP2
3329;SDS011;1677;49.576;10.990;2022-10-16T00:01:18;3.90;;;2.50;;
3329;SDS011;1677;49.576;10.990;2022-10-16T00:03:45;3.00;;;1.80;;
3329;SDS011;1677;49.576;10.990;2022-10-16T00:06:12;3.00;;;1.43;;
3329;SDS011;1677;49.576;10.990;2022-10-16T00:08:38;2.27;;;1.73;;
3329;SDS011;1677;49.576;10.990;2022-10-16T00:11:05;1.40;;;1.30;;
3329;SDS011;1677;49.576;10.990;2022-10-16T00:13:33;2.17;;;1.70;;
3329;SDS011;1677;49.576;10.990;2022-10-16T00:16:00;2.20;;;1.87;;
3329;SDS011;1677;49.576;10.990;2022-10-16T00:18:26;2.03;;;1.70;;
3329;SDS011;1677;49.576;10.990;2022-10-16T00:20:53;5.23;;;2.13;;
3329;SDS011;1677;49.576;10.990;2022-10-16T00:23:19;5.10;;;1.50;;
3329;SDS011;1677;49.576;10.990;2022-10-16T00:25:45;3.43;;;2.07;;
3329;SDS011;1677;49.576;10.990;2022-10-16T00:28:19;3.90;;;1.80;;
3329;SDS011;1677;49.576;10.990;2022-10-16T00:30:44;3.17;;;1.87;;
3329;SDS011;1677;49.576;10.990;2022-10-16T00:33:10;4.03;;;1.57;;
3329;SDS011;1677;49.576;10.990;2022-10-16T00:35:35;6.17;;;1.77;;
3329;SDS011;1677;49.576;10.990;2022-10-16T00:38:01;3.33;;;1.70;;
3329;SDS011;1677;49.576;10.990;2022-10-16T00:40:26;1.83;;;1.60;;
3329;SDS011;1677;49.576;10.990;2022-10-16T00:42:53;1.90;;;1.67;;
3329;SDS011;1677;49.576;10.990;2022-10-16T00:45:18;2.23;;;2.00;;
3329;SDS011;1677;49.576;10.990;2022-10-16T00:47:44;5.70;;;1.90;;
3329;SDS011;1677;49.576;10.990;2022-10-16T00:50:18;2.30;;;1.93;;
3329;SDS011;1677;49.576;10.990;2022-10-16T00:52:49;2.43;;;1.40;;
3329;SDS011;1677;49.576;10.990;2022-10-16T00:55:16;2.40;;;1.50;;
3329;SDS011;1677;49.576;10.990;2022-10-16T00:57:42;3.00;;;1.90;;
3329;SDS011;1677;49.576;10.990;2022-10-16T01:00:09;2.67;;;2.00;;
3329;SDS011;1677;49.576;10.990;2022-10-16T01:02:38;2.70;;;1.90;;
3329;SDS011;1677;49.576;10.990;2022-10-16T01:05:03;3.20;;;2.10;;
3329;SDS011;1677;49.576;10.990;2022-10-16T01:07:48;3.57;;;2.10;;
3329;SDS011;1677;49.576;10.990;2022-10-16T01:10:30;4.10;;;1.87;;
3329;SDS011;1677;49.576;10.990;2022-10-16T01:13:09;3.03;;;1.97;;
3329;SDS011;1677;49.576;10.990;2022-10-16T01:21:05;2.43;;;2.20;;
3329;SDS011;1677;49.576;10.990;2022-10-16T01:26:31;4.27;;;2.20;;
3329;SDS011;1677;49.576;10.990;2022-10-16T01:31:34;5.27;;;2.03;;
3329;SDS011;1677;49.576;10.990;2022-10-16T01:34:05;2.20;;;1.70;;
3329;SDS011;1677;49.576;10.990;2022-10-16T01:36:45;3.00;;;2.30;;
3329;SDS011;1677;49.576;10.990;2022-10-16T01:39:19;4.60;;;2.43;;
3329;SDS011;1677;49.576;10.990;2022-10-16T01:41:48;2.33;;;2.03;;
3329;SDS011;1677;49.576;10.990;2022-10-16T01:44:22;3.10;;;1.80;;
3329;SDS011;1677;49.576;10.990;2022-10-16T01:46:53;2.97;;;2.20;;
3329;SDS011;1677;49.576;10.990;2022-10-16T01:49:20;3.00;;;2.17;;
3329;SDS011;1677;49.576;10.990;2022-10-16T01:51:49;4.20;;;2.03;;
3329;SDS011;1677;49.576;10.990;2022-10-16T01:54:19;5.37;;;2.53;;
3329;SDS011;1677;49.576;10.990;2022-10-16T01:56:46;2.90;;;2.20;;
3329;SDS011;1677;49.576;10.990;2022-10-16T01:59:15;2.90;;;2.10;;
3329;SDS011;1677;49.576;10.990;2022-10-16T02:01:45;4.17;;;2.03;;
3329;SDS011;1677;49.576;10.990;2022-10-16T02:04:15;4.22;;;2.28;;
3329;SDS011;1677;49.576;10.990;2022-10-16T02:06:46;3.87;;;1.97;;
3329;SDS011;1677;49.576;10.990;2022-10-16T02:09:12;2.27;;;2.00;;
3329;SDS011;1677;49.576;10.990;2022-10-16T02:11:37;4.97;;;1.80;;
3329;SDS011;1677;49.576;10.990;2022-10-16T02:14:06;2.13;;;1.70;;
3329;SDS011;1677;49.576;10.990;2022-10-16T02:16:43;2.57;;;2.00;;
3329;SDS011;1677;49.576;10.990;2022-10-16T02:19:10;4.40;;;2.00;;
3329;SDS011;1677;49.576;10.990;2022-10-16T02:21:44;3.37;;;2.37;;
3329;SDS011;1677;49.576;10.990;2022-10-16T02:24:32;3.40;;;1.90;;
3329;SDS011;1677;49.576;10.990;2022-10-16T02:29:58;3.50;;;2.17;;
3329;SDS011;1677;49.576;10.990;2022-10-16T02:32:32;3.10;;;1.67;;
3329;SDS011;1677;49.576;10.990;2022-10-16T02:34:59;2.43;;;2.23;;
3329;SDS011;1677;49.576;10.990;2022-10-16T02:37:26;5.20;;;3.80;;
3329;SDS011;1677;49.576;10.990;2022-10-16T02:39:53;2.57;;;2.27;;
3329;SDS011;1677;49.576;10.990;2022-10-16T02:42:20;3.33;;;1.80;;
3329;SDS011;1677;49.576;10.990;2022-10-16T02:44:52;2.27;;;2.07;;
3329;SDS011;1677;49.576;10.990;2022-10-16T02:47:17;2.93;;;1.97;;
3329;SDS011;1677;49.576;10.990;2022-10-16T02:49:43;3.83;;;2.40;;
3329;SDS011;1677;49.576;10.990;2022-10-16T02:52:09;2.53;;;2.30;;
3329;SDS011;1677;49.576;10.990;2022-10-16T02:54:34;3.20;;;2.20;;
3329;SDS011;1677;49.576;10.990;2022-10-16T02:57:00;3.60;;;2.03;;
3329;SDS011;1677;49.576;10.990;2022-10-16T02:59:25;4.00;;;2.10;;
3329;SDS011;1677;49.576;10.990;2022-10-16T03:01:51;2.40;;;1.80;;
3329;SDS011;1677;49.576;10.990;2022-10-16T03:04:16;2.90;;;1.97;;
3329;SDS011;1677;49.576;10.990;2022-10-16T03:06:42;1.97;;;1.63;;
3329;SDS011;1677;49.576;10.990;2022-10-16T03:09:07;2.33;;;2.13;;
3329;SDS011;1677;49.576;10.990;2022-10-16T03:11:33;2.17;;;1.97;;
3329;SDS011;1677;49.576;10.990;2022-10-16T03:13:58;2.70;;;1.63;;
3329;SDS011;1677;49.576;10.990;2022-10-16T03:16:24;5.40;;;1.80;;
3329;SDS011;1677;49.576;10.990;2022-10-16T03:18:50;4.10;;;2.23;;
3329;SDS011;1677;49.576;10.990;2022-10-16T03:21:15;2.27;;;1.97;;
3329;SDS011;1677;49.576;10.990;2022-10-16T03:23:41;3.40;;;2.00;;
3329;SDS011;1677;49.576;10.990;2022-10-16T03:26:07;3.97;;;2.43;;
3329;SDS011;1677;49.576;10.990;2022-10-16T03:28:32;2.60;;;1.80;;
3329;SDS011;1677;49.576;10.990;2022-10-16T03:30:58;2.57;;;2.37;;
3329;SDS011;1677;49.576;10.990;2022-10-16T03:33:23;2.07;;;1.87;;
3329;SDS011;1677;49.576;10.990;2022-10-16T03:35:52;2.37;;;1.80;;
3329;SDS011;1677;49.576;10.990;2022-10-16T03:38:19;4.10;;;2.27;;
3329;SDS011;1677;49.576;10.990;2022-10-16T03:40:45;2.70;;;1.97;;
3329;SDS011;1677;49.576;10.990;2022-10-16T03:43:10;2.70;;;2.20;;
3329;SDS011;1677;49.576;10.990;2022-10-16T03:45:36;2.10;;;1.70;;
3329;SDS011;1677;49.576;10.990;2022-10-16T03:48:01;2.60;;;2.10;;
3329;SDS011;1677;49.576;10.990;2022-10-16T03:50:28;2.70;;;1.70;;
3329;SDS011;1677;49.576;10.990;2022-10-16T03:52:54;5.20;;;2.53;;
3329;SDS011;1677;49.576;10.990;2022-10-16T03:55:19;2.93;;;1.77;;
3329;SDS011;1677;49.576;10.990;2022-10-16T03:57:45;3.50;;;1.90;;
3329;SDS011;1677;49.576;10.990;2022-10-16T04:00:11;2.23;;;2.03;;
3329;SDS011;1677;49.576;10.990;2022-10-16T04:02:37;3.70;;;1.95;;
3329;SDS011;1677;49.576;10.990;2022-10-16T04:05:03;2.60;;;2.10;;
3329;SDS011;1677;49.576;10.990;2022-10-16T04:07:29;2.13;;;1.90;;
3329;SDS011;1677;49.576;10.990;2022-10-16T04:09:54;2.10;;;1.90;;
3329;SDS011;1677;49.576;10.990;2022-10-16T04:12:22;1.50;;;1.40;;
3329;SDS011;1677;49.576;10.990;2022-10-16T04:14:48;1.73;;;1.63;;
3329;SDS011;1677;49.576;10.990;2022-10-16T04:17:13;4.90;;;2.07;;
3329;SDS011;1677;49.576;10.990;2022-10-16T04:19:39;2.10;;;1.90;;
3329;SDS011;1677;49.576;10.990;2022-10-16T04:22:04;3.43;;;1.83;;
3329;SDS011;1677;49.576;10.990;2022-10-16T04:24:30;3.63;;;2.33;;
3329;SDS011;1677;49.576;10.990;2022-10-16T04:26:55;4.90;;;2.00;;
3329;SDS011;1677;49.576;10.990;2022-10-16T04:29:21;2.13;;;2.00;;
3329;SDS011;1677;49.576;10.990;2022-10-16T04:31:47;4.03;;;2.60;;
3329;SDS011;1677;49.576;10.990;2022-10-16T04:34:12;2.80;;;1.90;;
3329;SDS011;1677;49.576;10.990;2022-10-16T04:36:38;2.37;;;1.90;;
3329;SDS011;1677;49.576;10.990;2022-10-16T04:39:03;2.93;;;2.20;;
3329;SDS011;1677;49.576;10.990;2022-10-16T04:41:29;2.27;;;2.07;;
3329;SDS011;1677;49.576;10.990;2022-10-16T04:43:54;8.70;;;2.10;;
3329;SDS011;1677;49.576;10.990;2022-10-16T04:46:20;2.53;;;2.00;;
3329;SDS011;1677;49.576;10.990;2022-10-16T04:48:45;6.60;;;2.33;;
3329;SDS011;1677;49.576;10.990;2022-10-16T04:51:11;3.20;;;2.47;;
3329;SDS011;1677;49.576;10.990;2022-10-16T04:53:37;3.20;;;2.00;;
3329;SDS011;1677;49.576;10.990;2022-10-16T04:56:03;2.90;;;1.97;;
3329;SDS011;1677;49.576;10.990;2022-10-16T04:58:29;2.73;;;1.70;;
3329;SDS011;1677;49.576;10.990;2022-10-16T05:00:54;2.57;;;1.70;;
3329;SDS011;1677;49.576;10.990;2022-10-16T05:03:20;3.40;;;1.80;;
3329;SDS011;1677;49.576;10.990;2022-10-16T05:05:45;4.43;;;1.90;;
3329;SDS011;1677;49.576;10.990;2022-10-16T05:08:12;2.00;;;1.70;;
3329;SDS011;1677;49.576;10.990;2022-10-16T05:10:40;1.97;;;1.60;;
3329;SDS011;1677;49.576;10.990;2022-10-16T05:13:07;5.37;;;1.77;;
3329;SDS011;1677;49.576;10.990;2022-10-16T05:15:32;2.20;;;1.80;;
3329;SDS011;1677;49.576;10.990;2022-10-16T05:17:58;4.43;;;2.10;;
3329;SDS011;1677;49.576;10.990;2022-10-16T05:20:23;3.00;;;2.20;;
3329;SDS011;1677;49.576;10.990;2022-10-16T05:22:49;3.63;;;1.90;;
3329;SDS011;1677;49.576;10.990;2022-10-16T05:25:15;1.73;;;1.63;;
3329;SDS011;1677;49.576;10.990;2022-10-16T05:27:40;2.27;;;1.80;;
3329;SDS011;1677;49.576;10.990;2022-10-16T05:30:06;3.10;;;1.70;;
3329;SDS011;1677;49.576;10.990;2022-10-16T05:32:32;1.83;;;1.73;;
3329;SDS011;1677;49.576;10.990;2022-10-16T05:34:58;3.50;;;1.60;;
3329;SDS011;1677;49.576;10.990;2022-10-16T05:37:24;2.30;;;2.00;;
3329;SDS011;1677;49.576;10.990;2022-10-16T05:39:51;3.73;;;2.23;;
3329;SDS011;1677;49.576;10.990;2022-10-16T05:42:17;2.30;;;2.00;;
3329;SDS011;1677;49.576;10.990;2022-10-16T05:44:43;4.63;;;1.80;;
3329;SDS011;1677;49.576;10.990;2022-10-16T05:47:08;2.50;;;2.07;;
3329;SDS011;1677;49.576;10.990;2022-10-16T05:49:35;7.43;;;2.00;;
3329;SDS011;1677;49.576;10.990;2022-10-16T05:52:01;5.57;;;2.63;;
3329;SDS011;1677;49.576;10.990;2022-10-16T05:54:26;3.10;;;1.90;;
3329;SDS011;1677;49.576;10.990;2022-10-16T05:56:52;2.13;;;1.80;;
3329;SDS011;1677;49.576;10.990;2022-10-16T05:59:18;3.50;;;2.87;;
3329;SDS011;1677;49.576;10.990;2022-10-16T06:01:43;3.00;;;2.60;;
3329;SDS011;1677;49.576;10.990;2022-10-16T06:04:09;3.10;;;2.43;;
3329;SDS011;1677;49.576;10.990;2022-10-16T06:06:34;7.30;;;2.30;;
3329;SDS011;1677;49.576;10.990;2022-10-16T06:09:01;1.90;;;1.80;;
3329;SDS011;1677;49.576;10.990;2022-10-16T06:11:29;2.10;;;1.80;;
3329;SDS011;1677;49.576;10.990;2022-10-16T06:13:56;2.63;;;1.83;;
3329;SDS011;1677;49.576;10.990;2022-10-16T06:16:24;3.80;;;1.63;;
3329;SDS011;1677;49.576;10.990;2022-10-16T06:18:50;2.13;;;1.93;;
3329;SDS011;1677;49.576;10.990;2022-10-16T06:21:18;4.70;;;2.63;;
3329;SDS011;1677;49.576;10.990;2022-10-16T06:23:45;3.30;;;2.60;;
3329;SDS011;1677;49.576;10.990;2022-10-16T06:26:13;4.50;;;2.63;;
3329;SDS011;1677;49.576;10.990;2022-10-16T06:28:41;1.50;;;1.40;;
3329;SDS011;1677;49.576;10.990;2022-10-16T06:31:07;6.97;;;2.80;;
3329;SDS011;1677;49.576;10.990;2022-10-16T06:33:33;3.23;;;2.00;;
3329;SDS011;1677;49.576;10.990;2022-10-16T06:36:00;2.70;;;1.93;;
3329;SDS011;1677;49.576;10.990;2022-10-16T06:38:36;3.10;;;2.80;;
3329;SDS011;1677;49.576;10.990;2022-10-16T06:41:02;2.60;;;1.80;;
3329;SDS011;1677;49.576;10.990;2022-10-16T06:43:29;1.80;;;1.70;;
3329;SDS011;1677;49.576;10.990;2022-10-16T06:45:57;3.93;;;2.23;;
3329;SDS011;1677;49.576;10.990;2022-10-16T06:48:23;3.10;;;2.00;;
3329;SDS011;1677;49.576;10.990;2022-10-16T06:53:25;5.00;;;2.13;;
3329;SDS011;1677;49.576;10.990;2022-10-16T06:55:52;2.17;;;1.97;;
3329;SDS011;1677;49.576;10.990;2022-10-16T06:58:18;2.40;;;2.03;;
3329;SDS011;1677;49.576;10.990;2022-10-16T07:00:44;3.17;;;2.50;;
3329;SDS011;1677;49.576;10.990;2022-10-16T07:03:09;3.43;;;2.00;;
3329;SDS011;1677;49.576;10.990;2022-10-16T07:05:39;2.37;;;2.17;;
3329;SDS011;1677;49.576;10.990;2022-10-16T07:08:05;3.77;;;2.43;;
3329;SDS011;1677;49.576;10.990;2022-10-16T07:10:31;2.80;;;2.17;;
3329;SDS011;1677;49.576;10.990;2022-10-16T07:12:57;2.90;;;2.30;;
3329;SDS011;1677;49.576;10.990;2022-10-16T07:15:24;2.07;;;1.87;;
3329;SDS011;1677;49.576;10.990;2022-10-16T07:17:50;3.07;;;2.50;;
3329;SDS011;1677;49.576;10.990;2022-10-16T07:20:15;2.57;;;2.37;;
3329;SDS011;1677;49.576;10.990;2022-10-16T07:22:41;4.33;;;2.10;;
3329;SDS011;1677;49.576;10.990;2022-10-16T07:25:07;5.07;;;2.50;;
3329;SDS011;1677;49.576;10.990;2022-10-16T07:27:33;2.90;;;2.17;;
3329;SDS011;1677;49.576;10.990;2022-10-16T07:29:59;2.83;;;2.17;;
3329;SDS011;1677;49.576;10.990;2022-10-16T07:32:24;2.50;;;2.03;;
3329;SDS011;1677;49.576;10.990;2022-10-16T07:34:50;3.30;;;2.20;;
3329;SDS011;1677;49.576;10.990;2022-10-16T07:37:16;2.33;;;2.10;;
3329;SDS011;1677;49.576;10.990;2022-10-16T07:39:42;3.03;;;2.27;;
3329;SDS011;1677;49.576;10.990;2022-10-16T07:42:08;3.10;;;2.47;;
3329;SDS011;1677;49.576;10.990;2022-10-16T07:44:33;2.30;;;2.10;;
3329;SDS011;1677;49.576;10.990;2022-10-16T07:46:59;3.20;;;2.40;;
3329;SDS011;1677;49.576;10.990;2022-10-16T07:49:24;5.20;;;2.40;;
3329;SDS011;1677;49.576;10.990;2022-10-16T07:51:50;4.00;;;2.40;;
3329;SDS011;1677;49.576;10.990;2022-10-16T07:54:16;5.93;;;2.50;;
3329;SDS011;1677;49.576;10.990;2022-10-16T07:56:41;4.57;;;2.80;;
3329;SDS011;1677;49.576;10.990;2022-10-16T07:59:07;2.90;;;2.47;;
3329;SDS011;1677;49.576;10.990;2022-10-16T08:01:33;2.47;;;2.27;;
3329;SDS011;1677;49.576;10.990;2022-10-16T08:03:58;4.50;;;2.40;;
3329;SDS011;1677;49.576;10.990;2022-10-16T08:06:24;3.10;;;2.73;;
3329;SDS011;1677;49.576;10.990;2022-10-16T08:08:49;4.13;;;2.50;;
3329;SDS011;1677;49.576;10.990;2022-10-16T08:11:15;5.70;;;2.80;;
3329;SDS011;1677;49.576;10.990;2022-10-16T08:13:41;2.73;;;2.37;;
3329;SDS011;1677;49.576;10.990;2022-10-16T08:16:07;3.77;;;2.17;;
3329;SDS011;1677;49.576;10.990;2022-10-16T08:18:34;2.27;;;1.93;;
3329;SDS011;1677;49.576;10.990;2022-10-16T08:21:01;3.80;;;2.30;;
3329;SDS011;1677;49.576;10.990;2022-10-16T08:23:27;2.23;;;2.00;;
3329;SDS011;1677;49.576;10.990;2022-10-16T08:25:53;1.93;;;1.77;;
3329;SDS011;1677;49.576;10.990;2022-10-16T08:28:20;3.37;;;2.70;;
3329;SDS011;1677;49.576;10.990;2022-10-16T08:30:46;1.97;;;1.80;;
3329;SDS011;1677;49.576;10.990;2022-10-16T08:33:12;2.07;;;1.90;;
3329;SDS011;1677;49.576;10.990;2022-10-16T08:35:37;2.90;;;1.90;;
3329;SDS011;1677;49.576;10.990;2022-10-16T08:38:03;2.43;;;1.90;;
3329;SDS011;1677;49.576;10.990;2022-10-16T08:40:30;3.70;;;2.17;;
3329;SDS011;1677;49.576;10.990;2022-10-16T08:48:27;2.53;;;2.00;;
3329;SDS011;1677;49.576;10.990;2022-10-16T08:50:55;2.10;;;1.90;;
3329;SDS011;1677;49.576;10.990;2022-10-16T08:53:26;5.23;;;2.30;;
3329;SDS011;1677;49.576;10.990;2022-10-16T08:55:56;3.43;;;1.93;;
3329;SDS011;1677;49.576;10.990;2022-10-16T08:58:26;3.27;;;2.37;;
3329;SDS011;1677;49.576;10.990;2022-10-16T09:00:54;2.50;;;2.10;;
3329;SDS011;1677;49.576;10.990;2022-10-16T09:09:01;3.80;;;2.67;;
3329;SDS011;1677;49.576;10.990;2022-10-16T09:23:27;2.20;;;2.00;;
3329;SDS011;1677;49.576;10.990;2022-10-16T09:25:54;3.30;;;2.40;;
3329;SDS011;1677;49.576;10.990;2022-10-16T09:28:21;2.83;;;2.57;;
3329;SDS011;1677;49.576;10.990;2022-10-16T09:30:46;4.00;;;2.57;;
3329;SDS011;1677;49.576;10.990;2022-10-16T09:33:15;2.60;;;1.93;;
3329;SDS011;1677;49.576;10.990;2022-10-16T09:35:45;5.23;;;2.20;;
3329;SDS011;1677;49.576;10.990;2022-10-16T09:40:57;3.30;;;2.27;;
3329;SDS011;1677;49.576;10.990;2022-10-16T09:46:00;2.07;;;1.87;;
3329;SDS011;1677;49.576;10.990;2022-10-16T09:48:31;2.70;;;2.10;;
3329;SDS011;1677;49.576;10.990;2022-10-16T09:51:03;4.00;;;2.43;;
3329;SDS011;1677;49.576;10.990;2022-10-16T09:53:41;2.80;;;2.30;;
3329;SDS011;1677;49.576;10.990;2022-10-16T09:56:09;3.47;;;2.30;;
3329;SDS011;1677;49.576;10.990;2022-10-16T09:58:50;2.37;;;2.03;;
3329;SDS011;1677;49.576;10.990;2022-10-16T10:01:17;4.60;;;2.33;;
3329;SDS011;1677;49.576;10.990;2022-10-16T10:03:44;2.23;;;2.03;;
3329;SDS011;1677;49.576;10.990;2022-10-16T10:06:16;3.60;;;2.00;;
3329;SDS011;1677;49.576;10.990;2022-10-16T10:08:52;4.63;;;2.30;;
3329;SDS011;1677;49.576;10.990;2022-10-16T10:11:54;3.13;;;2.27;;
3329;SDS011;1677;49.576;10.990;2022-10-16T10:14:37;3.77;;;2.40;;
3329;SDS011;1677;49.576;10.990;2022-10-16T10:22:23;3.00;;;2.70;;
3329;SDS011;1677;49.576;10.990;2022-10-16T10:27:39;3.10;;;2.30;;
3329;SDS011;1677;49.576;10.990;2022-10-16T10:30:15;2.60;;;2.07;;
3329;SDS011;1677;49.576;10.990;2022-10-16T10:38:26;2.90;;;2.50;;
3329;SDS011;1677;49.576;10.990;2022-10-16T10:46:04;4.17;;;2.30;;
3329;SDS011;1677;49.576;10.990;2022-10-16T11:00:14;4.00;;;2.63;;
3329;SDS011;1677;49.576;10.990;2022-10-16T11:05:50;4.60;;;2.40;;
3329;SDS011;1677;49.576;10.990;2022-10-16T11:08:25;8.77;;;3.63;;
3329;SDS011;1677;49.576;10.990;2022-10-16T11:11:00;12.53;;;3.07;;
3329;SDS011;1677;49.576;10.990;2022-10-16T11:13:54;3.50;;;2.00;;
3329;SDS011;1677;49.576;10.990;2022-10-16T11:16:39;2.57;;;2.10;;
3329;SDS011;1677;49.576;10.990;2022-10-16T11:19:12;4.07;;;3.03;;
3329;SDS011;1677;49.576;10.990;2022-10-16T11:21:48;3.90;;;2.50;;
3329;SDS011;1677;49.576;10.990;2022-10-16T11:24:20;2.43;;;2.00;;
3329;SDS011;1677;49.576;10.990;2022-10-16T11:26:51;7.73;;;2.40;;
3329;SDS011;1677;49.576;10.990;2022-10-16T11:29:22;2.47;;;2.10;;
3329;SDS011;1677;49.576;10.990;2022-10-16T11:32:00;11.53;;;3.13;;
3329;SDS011;1677;49.576;10.990;2022-10-16T11:34:33;2.73;;;2.30;;
3329;SDS011;1677;49.576;10.990;2022-10-16T11:39:58;3.30;;;2.13;;
3329;SDS011;1677;49.576;10.990;2022-10-16T11:42:44;3.40;;;2.20;;
3329;SDS011;1677;49.576;10.990;2022-10-16T11:56:15;2.93;;;1.83;;
3329;SDS011;1677;49.576;10.990;2022-10-16T11:58:57;3.00;;;2.30;;
3329;SDS011;1677;49.576;10.990;2022-10-16T12:09:19;4.77;;;1.90;;
3329;SDS011;1677;49.576;10.990;2022-10-16T12:11:56;3.40;;;1.80;;
3329;SDS011;1677;49.576;10.990;2022-10-16T12:14:36;2.23;;;2.00;;
3329;SDS011;1677;49.576;10.990;2022-10-16T12:17:04;5.57;;;2.20;;
3329;SDS011;1677;49.576;10.990;2022-10-16T12:20:18;3.40;;;1.93;;
3329;SDS011;1677;49.576;10.990;2022-10-16T12:22:52;1.93;;;1.83;;
3329;SDS011;1677;49.576;10.990;2022-10-16T12:25:38;2.90;;;1.57;;
3329;SDS011;1677;49.576;10.990;2022-10-16T12:28:27;2.57;;;1.93;;
3329;SDS011;1677;49.576;10.990;2022-10-16T12:33:28;2.63;;;1.83;;
3329;SDS011;1677;49.576;10.990;2022-10-16T12:36:00;5.50;;;2.50;;
3329;SDS011;1677;49.576;10.990;2022-10-16T12:41:12;4.33;;;2.00;;
3329;SDS011;1677;49.576;10.990;2022-10-16T12:43:48;3.70;;;1.90;;
3329;SDS011;1677;49.576;10.990;2022-10-16T12:48:40;3.20;;;2.23;;
3329;SDS011;1677;49.576;10.990;2022-10-16T12:51:19;3.53;;;3.00;;
3329;SDS011;1677;49.576;10.990;2022-10-16T12:53:59;2.53;;;1.80;;
3329;SDS011;1677;49.576;10.990;2022-10-16T12:56:56;2.60;;;1.50;;
3329;SDS011;1677;49.576;10.990;2022-10-16T13:16:46;2.20;;;2.00;;
3329;SDS011;1677;49.576;10.990;2022-10-16T13:19:44;3.07;;;1.80;;
3329;SDS011;1677;49.576;10.990;2022-10-16T13:22:14;4.37;;;2.03;;
3329;SDS011;1677;49.576;10.990;2022-10-16T13:27:47;2.17;;;1.97;;
3329;SDS011;1677;49.576;10.990;2022-10-16T13:30:29;3.50;;;1.87;;
3329;SDS011;1677;49.576;10.990;2022-10-16T13:32:59;2.50;;;1.90;;
3329;SDS011;1677;49.576;10.990;2022-10-16T13:35:32;3.47;;;1.33;;
3329;SDS011;1677;49.576;10.990;2022-10-16T13:43:19;2.90;;;1.77;;
3329;SDS011;1677;49.576;10.990;2022-10-16T13:46:01;2.93;;;2.20;;
3329;SDS011;1677;49.576;10.990;2022-10-16T13:48:30;2.13;;;1.60;;
3329;SDS011;1677;49.576;10.990;2022-10-16T13:51:03;1.90;;;1.80;;
3329;SDS011;1677;49.576;10.990;2022-10-16T13:53:35;3.90;;;1.80;;
3329;SDS011;1677;49.576;10.990;2022-10-16T13:56:05;1.93;;;1.70;;
3329;SDS011;1677;49.576;10.990;2022-10-16T13:58:32;4.25;;;1.60;;
3329;SDS011;1677;49.576;10.990;2022-10-16T14:00:59;3.60;;;1.43;;
3329;SDS011;1677;49.576;10.990;2022-10-16T14:03:27;1.60;;;1.50;;
3329;SDS011;1677;49.576;10.990;2022-10-16T14:05:55;1.73;;;1.60;;
3329;SDS011;1677;49.576;10.990;2022-10-16T14:08:26;4.40;;;1.97;;
3329;SDS011;1677;49.576;10.990;2022-10-16T14:10:54;5.00;;;1.77;;
3329;SDS011;1677;49.576;10.990;2022-10-16T14:13:31;4.90;;;2.07;;
3329;SDS011;1677;49.576;10.990;2022-10-16T14:16:02;2.90;;;1.90;;
3329;SDS011;1677;49.576;10.990;2022-10-16T14:18:32;2.83;;;1.70;;
3329;SDS011;1677;49.576;10.990;2022-10-16T14:21:05;9.80;;;2.13;;
3329;SDS011;1677;49.576;10.990;2022-10-16T14:23:37;5.37;;;2.00;;
3329;SDS011;1677;49.576;10.990;2022-10-16T14:28:36;2.13;;;1.63;;
3329;SDS011;1677;49.576;10.990;2022-10-16T14:31:13;3.30;;;1.70;;
3329;SDS011;1677;49.576;10.990;2022-10-16T14:33:45;1.90;;;1.60;;
3329;SDS011;1677;49.576;10.990;2022-10-16T14:36:14;1.73;;;1.63;;
3329;SDS011;1677;49.576;10.990;2022-10-16T14:38:48;2.90;;;1.90;;
3329;SDS011;1677;49.576;10.990;2022-10-16T14:41:20;2.30;;;2.10;;
3329;SDS011;1677;49.576;10.990;2022-10-16T14:43:49;2.53;;;1.70;;
3329;SDS011;1677;49.576;10.990;2022-10-16T14:46:20;1.77;;;1.50;;
3329;SDS011;1677;49.576;10.990;2022-10-16T14:48:54;3.23;;;1.70;;
3329;SDS011;1677;49.576;10.990;2022-10-16T14:51:25;1.90;;;1.50;;
3329;SDS011;1677;49.576;10.990;2022-10-16T14:53:51;1.57;;;1.47;;
3329;SDS011;1677;49.576;10.990;2022-10-16T14:56:21;1.93;;;1.70;;
3329;SDS011;1677;49.576;10.990;2022-10-16T14:58:51;2.10;;;1.80;;
3329;SDS011;1677;49.576;10.990;2022-10-16T15:01:18;2.20;;;2.00;;
3329;SDS011;1677;49.576;10.990;2022-10-16T15:03:44;6.10;;;2.30;;
3329;SDS011;1677;49.576;10.990;2022-10-16T15:06:11;3.60;;;2.00;;
3329;SDS011;1677;49.576;10.990;2022-10-16T15:08:37;5.80;;;1.90;;
3329;SDS011;1677;49.576;10.990;2022-10-16T15:11:03;6.13;;;2.23;;
3329;SDS011;1677;49.576;10.990;2022-10-16T15:13:29;3.10;;;2.20;;
3329;SDS011;1677;49.576;10.990;2022-10-16T15:15:55;4.80;;;2.07;;
3329;SDS011;1677;49.576;10.990;2022-10-16T15:18:20;2.13;;;1.70;;
3329;SDS011;1677;49.576;10.990;2022-10-16T15:20:48;1.63;;;1.53;;
3329;SDS011;1677;49.576;10.990;2022-10-16T15:23:16;1.70;;;1.60;;
3329;SDS011;1677;49.576;10.990;2022-10-16T15:28:11;2.17;;;1.97;;
3329;SDS011;1677;49.576;10.990;2022-10-16T15:30:37;3.57;;;2.10;;
3329;SDS011;1677;49.576;10.990;2022-10-16T15:33:04;1.63;;;1.53;;
3329;SDS011;1677;49.576;10.990;2022-10-16T15:35:34;4.80;;;2.13;;
3329;SDS011;1677;49.576;10.990;2022-10-16T15:38:00;2.83;;;1.93;;
3329;SDS011;1677;49.576;10.990;2022-10-16T15:40:25;3.03;;;1.87;;
3329;SDS011;1677;49.576;10.990;2022-10-16T15:42:51;2.10;;;1.90;;
3329;SDS011;1677;49.576;10.990;2022-10-16T15:45:16;2.10;;;1.90;;
3329;SDS011;1677;49.576;10.990;2022-10-16T15:47:44;2.88;;;2.08;;
3329;SDS011;1677;49.576;10.990;2022-10-16T15:50:10;2.10;;;1.73;;
3329;SDS011;1677;49.576;10.990;2022-10-16T15:52:39;2.30;;;2.10;;
3329;SDS011;1677;49.576;10.990;2022-10-16T15:55:09;3.93;;;2.10;;
3329;SDS011;1677;49.576;10.990;2022-10-16T15:57:38;4.07;;;2.13;;
3329;SDS011;1677;49.576;10.990;2022-10-16T16:00:10;3.57;;;1.50;;
3329;SDS011;1677;49.576;10.990;2022-10-16T16:02:39;7.07;;;2.30;;
3329;SDS011;1677;49.576;10.990;2022-10-16T16:05:08;3.50;;;2.00;;
3329;SDS011;1677;49.576;10.990;2022-10-16T16:07:35;2.30;;;2.10;;
3329;SDS011;1677;49.576;10.990;2022-10-16T16:10:01;2.83;;;2.30;;
3329;SDS011;1677;49.576;10.990;2022-10-16T16:12:28;2.70;;;2.50;;
3329;SDS011;1677;49.576;10.990;2022-10-16T16:14:53;3.87;;;2.80;;
3329;SDS011;1677;49.576;10.990;2022-10-16T16:17:19;4.33;;;3.70;;
3329;SDS011;1677;49.576;10.990;2022-10-16T16:19:45;5.70;;;3.43;;
3329;SDS011;1677;49.576;10.990;2022-10-16T16:22:11;4.83;;;3.70;;
3329;SDS011;1677;49.576;10.990;2022-10-16T16:24:37;5.03;;;3.50;;
3329;SDS011;1677;49.576;10.990;2022-10-16T16:27:03;6.03;;;3.60;;
3329;SDS011;1677;49.576;10.990;2022-10-16T16:29:28;3.33;;;3.07;;
3329;SDS011;1677;49.576;10.990;2022-10-16T16:31:54;4.40;;;2.97;;
3329;SDS011;1677;49.576;10.990;2022-10-16T16:34:23;4.83;;;2.80;;
3329;SDS011;1677;49.576;10.990;2022-10-16T16:36:50;3.10;;;2.73;;
3329;SDS011;1677;49.576;10.990;2022-10-16T16:39:15;3.73;;;2.63;;
3329;SDS011;1677;49.576;10.990;2022-10-16T16:41:41;3.20;;;2.40;;
3329;SDS011;1677;49.576;10.990;2022-10-16T16:44:08;4.10;;;2.90;;
3329;SDS011;1677;49.576;10.990;2022-10-16T16:46:35;4.60;;;3.13;;
3329;SDS011;1677;49.576;10.990;2022-10-16T16:49:02;22.00;;;16.20;;
3329;SDS011;1677;49.576;10.990;2022-10-16T16:51:28;7.33;;;5.60;;
3329;SDS011;1677;49.576;10.990;2022-10-16T16:53:53;6.43;;;5.03;;
3329;SDS011;1677;49.576;10.990;2022-10-16T16:56:20;5.77;;;4.63;;
3329;SDS011;1677;49.576;10.990;2022-10-16T16:58:47;4.03;;;3.33;;
3329;SDS011;1677;49.576;10.990;2022-10-16T17:01:14;7.10;;;3.77;;
3329;SDS011;1677;49.576;10.990;2022-10-16T17:03:42;5.87;;;5.03;;
3329;SDS011;1677;49.576;10.990;2022-10-16T17:06:12;4.20;;;3.77;;
3329;SDS011;1677;49.576;10.990;2022-10-16T17:08:39;7.83;;;3.60;;
3329;SDS011;1677;49.576;10.990;2022-10-16T17:11:05;6.37;;;5.27;;
3329;SDS011;1677;49.576;10.990;2022-10-16T17:13:32;16.70;;;11.67;;
3329;SDS011;1677;49.576;10.990;2022-10-16T17:16:02;17.90;;;13.33;;
3329;SDS011;1677;49.576;10.990;2022-10-16T17:18:29;11.03;;;8.90;;
3329;SDS011;1677;49.576;10.990;2022-10-16T17:20:58;9.53;;;6.60;;
3329;SDS011;1677;49.576;10.990;2022-10-16T17:23:24;6.00;;;5.30;;
3329;SDS011;1677;49.576;10.990;2022-10-16T17:25:50;8.73;;;7.03;;
3329;SDS011;1677;49.576;10.990;2022-10-16T17:28:15;9.40;;;8.60;;